createdAt,value
2018-08-12T00:02:18.093Z,67.40
2018-08-12T00:04:46.584Z,67.67
2018-08-12T00:07:15.466Z,67.74
2018-08-12T00:09:43.922Z,68.10
2018-08-12T00:12:12.366Z,68.29
2018-08-12T00:14:41.040Z,68.28
2018-08-12T00:17:09.465Z,68.38
2018-08-12T00:19:37.929Z,68.29
2018-08-12T00:22:06.777Z,68.39
2018-08-12T00:24:35.246Z,68.51
2018-08-12T00:27:03.729Z,68.33
2018-08-12T00:29:32.274Z,68.00
2018-08-12T00:32:00.749Z,67.99
2018-08-12T00:34:29.243Z,67.88
2018-08-12T00:36:58.277Z,68.05
2018-08-12T00:39:26.729Z,67.92
2018-08-12T00:41:55.517Z,67.72
2018-08-12T00:44:24.622Z,67.99
2018-08-12T00:46:53.210Z,68.56
2018-08-12T00:49:21.721Z,69.16
2018-08-12T00:51:50.693Z,69.57
2018-08-12T00:54:19.244Z,69.33
2018-08-12T00:56:47.725Z,69.34
2018-08-12T00:59:16.293Z,69.60
2018-08-12T01:01:45.281Z,69.93
2018-08-12T01:04:14.157Z,70.23
2018-08-12T01:06:43.229Z,70.12
2018-08-12T01:09:13.197Z,70.01
2018-08-12T01:11:41.962Z,69.91
2018-08-12T01:14:10.905Z,69.84
2018-08-12T01:16:39.375Z,69.86
2018-08-12T01:19:08.205Z,69.81
2018-08-12T01:21:36.961Z,69.90
2018-08-12T01:24:05.569Z,69.95
2018-08-12T01:26:34.030Z,69.67
2018-08-12T01:29:02.632Z,69.95
2018-08-12T01:31:31.145Z,70.07
2018-08-12T01:33:59.997Z,70.45
2018-08-12T01:36:28.446Z,70.71
2018-08-12T01:38:56.977Z,70.93
2018-08-12T01:41:25.393Z,71.15
2018-08-12T01:43:54.117Z,71.49
2018-08-12T01:46:22.838Z,71.72
2018-08-12T01:48:51.289Z,72.08
2018-08-12T01:51:19.929Z,72.35
2018-08-12T01:53:48.706Z,73.06
2018-08-12T01:56:17.225Z,73.49
2018-08-12T01:58:45.829Z,73.92
2018-08-12T02:01:14.252Z,73.75
2018-08-12T02:03:42.705Z,73.84
2018-08-12T02:06:11.456Z,74.50
2018-08-12T02:08:39.949Z,74.69
2018-08-12T02:11:08.468Z,75.21
2018-08-12T02:13:37.021Z,75.37
2018-08-12T02:16:05.480Z,75.51
2018-08-12T02:18:33.973Z,75.65
2018-08-12T02:21:02.614Z,75.13
2018-08-12T02:23:31.078Z,75.04
2018-08-12T02:25:59.557Z,75.77
2018-08-12T02:28:28.115Z,75.66
2018-08-12T02:30:56.578Z,75.47
2018-08-12T02:33:26.679Z,75.54
2018-08-12T02:35:55.219Z,75.75
2018-08-12T02:38:23.712Z,76.15
2018-08-12T02:40:52.201Z,76.00
2018-08-12T02:43:20.993Z,76.15
2018-08-12T02:45:50.109Z,76.02
2018-08-12T02:48:18.602Z,75.84
2018-08-12T02:50:47.356Z,76.48
2018-08-12T02:53:15.909Z,76.40
2018-08-12T02:55:48.573Z,76.68
2018-08-12T02:58:17.107Z,76.75
2018-08-12T03:00:46.679Z,77.15
2018-08-12T03:03:15.385Z,76.97
2018-08-12T03:05:43.997Z,76.74
2018-08-12T03:08:12.518Z,76.34
2018-08-12T03:10:41.346Z,76.35
2018-08-12T03:13:10.233Z,76.11
2018-08-12T03:15:38.695Z,76.04
2018-08-12T03:18:07.173Z,76.72
2018-08-12T03:20:35.742Z,77.20
2018-08-12T03:23:04.193Z,77.17
2018-08-12T03:25:32.664Z,77.40
2018-08-12T03:28:01.606Z,77.25
2018-08-12T03:30:30.071Z,76.65
2018-08-12T03:32:58.532Z,77.29
2018-08-12T03:35:27.141Z,77.03
2018-08-12T03:37:55.622Z,77.52
2018-08-12T03:40:24.120Z,77.26
2018-08-12T03:42:52.915Z,77.54
2018-08-12T03:45:22.409Z,77.64
2018-08-12T03:47:51.171Z,77.42
2018-08-12T03:50:19.778Z,77.64
2018-08-12T03:52:48.234Z,77.83
2018-08-12T03:55:16.733Z,77.48
2018-08-12T03:57:45.288Z,77.61
2018-08-12T04:00:16.577Z,77.67
2018-08-12T04:02:46.183Z,78.12
2018-08-12T04:05:15.013Z,78.41
2018-08-12T04:07:43.623Z,77.90
2018-08-12T04:10:12.157Z,78.27
2018-08-12T04:12:40.985Z,78.59
2018-08-12T04:15:10.806Z,78.37
2018-08-12T04:17:39.425Z,78.36
2018-08-12T04:20:09.935Z,77.93
2018-08-12T04:22:39.092Z,77.97
2018-08-12T04:25:07.641Z,78.00
2018-08-12T04:27:36.191Z,78.10
2018-08-12T04:30:06.441Z,78.13
2018-08-12T04:32:35.245Z,78.03
2018-08-12T04:35:04.013Z,77.70
2018-08-12T04:37:33.121Z,77.99
2018-08-12T04:40:01.722Z,78.54
2018-08-12T04:42:31.368Z,78.42
2018-08-12T04:44:59.805Z,78.46
2018-08-12T04:47:28.309Z,78.11
2018-08-12T04:49:57.217Z,77.67
2018-08-12T04:52:25.829Z,77.42
2018-08-12T04:54:54.306Z,77.37
2018-08-12T04:57:23.001Z,77.50
2018-08-12T04:59:51.496Z,76.88
2018-08-12T05:02:19.957Z,76.84
2018-08-12T05:04:48.846Z,76.78
2018-08-12T05:07:17.346Z,76.64
2018-08-12T05:09:45.801Z,76.87
2018-08-12T05:12:14.340Z,76.78
2018-08-12T05:14:42.821Z,76.89
2018-08-12T05:17:11.289Z,77.03
2018-08-12T05:19:40.037Z,77.07
2018-08-12T05:22:08.458Z,77.23
2018-08-12T05:24:36.927Z,76.71
2018-08-12T05:27:05.545Z,76.96
2018-08-12T05:29:34.045Z,76.29
2018-08-12T05:32:02.578Z,76.29
2018-08-12T05:34:31.773Z,76.05
2018-08-12T05:37:00.212Z,76.04
2018-08-12T05:39:28.837Z,76.12
2018-08-12T05:41:57.596Z,76.12
2018-08-12T05:44:26.029Z,75.66
2018-08-12T05:46:54.614Z,75.60
2018-08-12T05:49:23.034Z,75.64
2018-08-12T05:51:51.777Z,75.93
2018-08-12T05:54:20.550Z,76.35
2018-08-12T05:56:49.019Z,76.06
2018-08-12T05:59:17.534Z,75.71
2018-08-12T06:01:46.019Z,75.62
2018-08-12T06:04:14.525Z,75.58
2018-08-12T06:06:42.992Z,74.90
2018-08-12T06:09:11.980Z,74.40
2018-08-12T06:11:40.800Z,73.53
2018-08-12T06:14:09.561Z,72.68
2018-08-12T06:16:38.063Z,72.91
2018-08-12T06:19:06.654Z,72.91
2018-08-12T06:21:35.166Z,72.42
2018-08-12T06:24:03.756Z,72.17
2018-08-12T06:26:32.786Z,71.83
2018-08-12T06:29:02.391Z,70.43
2018-08-12T06:31:30.990Z,70.25
2018-08-12T06:33:59.731Z,69.96
2018-08-12T06:36:28.277Z,69.30
2018-08-12T06:38:56.761Z,69.07
2018-08-12T06:41:25.261Z,68.70
2018-08-12T06:43:53.705Z,68.80
2018-08-12T06:46:22.302Z,69.29
2018-08-12T06:48:50.875Z,69.15
2018-08-12T06:51:19.353Z,69.89
2018-08-12T06:53:47.849Z,69.14
2018-08-12T06:56:16.625Z,68.62
2018-08-12T06:58:45.098Z,68.54
2018-08-12T07:01:13.614Z,68.72
2018-08-12T07:03:42.276Z,69.30
2018-08-12T07:06:10.777Z,69.62
2018-08-12T07:08:39.465Z,69.47
2018-08-12T07:11:08.113Z,69.80
2018-08-12T07:13:36.626Z,69.60
2018-08-12T07:16:05.169Z,69.14
2018-08-12T07:18:33.806Z,70.23
2018-08-12T07:21:02.318Z,71.45
2018-08-12T07:23:30.935Z,70.52
2018-08-12T07:25:59.825Z,68.15
2018-08-12T07:28:28.297Z,66.18
2018-08-12T07:30:56.777Z,62.56
2018-08-12T07:33:25.290Z,61.29
2018-08-12T07:35:54.406Z,58.76
2018-08-12T07:38:23.193Z,55.70
2018-08-12T07:40:51.941Z,54.41
2018-08-12T07:43:20.457Z,55.43
2018-08-12T07:45:49.033Z,60.16
2018-08-12T07:48:18.191Z,72.96
2018-08-12T07:50:46.633Z,76.62
2018-08-12T07:53:15.222Z,77.69
2018-08-12T07:55:44.496Z,78.07
2018-08-12T07:58:12.875Z,77.28
2018-08-12T08:00:41.381Z,77.64
2018-08-12T08:03:10.111Z,77.17
2018-08-12T08:05:38.697Z,76.90
2018-08-12T08:08:07.205Z,76.61
2018-08-12T08:10:35.775Z,76.95
2018-08-12T08:13:04.401Z,77.24
2018-08-12T08:15:33.864Z,77.21
2018-08-12T08:18:02.888Z,77.32
2018-08-12T08:20:31.503Z,77.42
2018-08-12T08:23:00.019Z,77.65
2018-08-12T08:25:29.014Z,78.12
2018-08-12T08:27:57.690Z,78.21
2018-08-12T08:30:26.193Z,78.54
2018-08-12T08:32:54.737Z,78.69
2018-08-12T08:35:23.271Z,78.37
2018-08-12T08:37:51.766Z,78.49
2018-08-12T08:40:20.421Z,77.94
2018-08-12T08:42:48.993Z,78.55
2018-08-12T08:45:19.797Z,78.02
2018-08-12T08:47:49.492Z,76.40
2018-08-12T08:50:19.137Z,74.74
2018-08-12T08:52:47.645Z,73.13
2018-08-12T08:55:16.774Z,72.40
2018-08-12T08:57:46.129Z,71.19
2018-08-12T09:00:16.495Z,71.50
2018-08-12T09:02:47.286Z,70.23
2018-08-12T09:05:16.345Z,69.03
2018-08-12T09:07:44.962Z,69.27
2018-08-12T09:10:14.993Z,68.56
2018-08-12T09:12:43.490Z,68.46
2018-08-12T09:15:14.028Z,68.56
2018-08-12T09:17:43.369Z,68.15
2018-08-12T09:20:13.865Z,68.70
2018-08-12T09:22:42.508Z,69.79
2018-08-12T09:25:12.153Z,70.57
2018-08-12T09:27:40.681Z,70.92
2018-08-12T09:30:21.505Z,71.64
2018-08-12T09:32:50.168Z,71.94
2018-08-12T09:35:18.770Z,71.63
2018-08-12T09:37:47.324Z,71.33
2018-08-12T09:40:17.133Z,71.48
2018-08-12T09:42:46.756Z,71.14
2018-08-12T09:45:17.681Z,72.08
2018-08-12T09:47:46.476Z,71.67
2018-08-12T09:50:16.454Z,71.79
2018-08-12T09:52:48.230Z,70.79
2018-08-12T09:55:17.265Z,70.33
2018-08-12T09:57:46.233Z,69.77
2018-08-12T10:00:22.629Z,68.38
2018-08-12T10:02:52.676Z,67.43
2018-08-12T10:05:21.277Z,66.88
2018-08-12T10:07:49.764Z,65.40
2018-08-12T10:10:18.873Z,65.43
2018-08-12T10:12:47.493Z,65.62
2018-08-12T10:15:16.498Z,65.08
2018-08-12T10:17:49.023Z,65.14
2018-08-12T10:20:17.599Z,65.52
2018-08-12T10:22:46.140Z,65.46
2018-08-12T10:25:14.690Z,65.36
2018-08-12T10:27:43.165Z,65.12
2018-08-12T10:30:12.950Z,65.12
2018-08-12T10:32:42.049Z,65.26
2018-08-12T10:35:11.964Z,65.45
2018-08-12T10:37:40.894Z,63.99
2018-08-12T10:40:12.504Z,64.66
2018-08-12T10:42:41.134Z,65.35
2018-08-12T10:45:11.146Z,65.18
2018-08-12T10:47:40.925Z,64.92
2018-08-12T10:50:14.809Z,64.49
2018-08-12T10:52:44.406Z,64.14
2018-08-12T10:55:14.066Z,62.81
2018-08-12T10:57:43.245Z,62.35
2018-08-12T11:00:17.983Z,62.29
2018-08-12T11:02:47.137Z,61.34
2018-08-12T11:05:16.478Z,61.60
2018-08-12T11:07:46.115Z,61.89
2018-08-12T11:10:14.719Z,62.41
2018-08-12T11:12:43.552Z,62.76
2018-08-12T11:15:12.139Z,62.30
2018-08-12T11:17:41.398Z,61.97
2018-08-12T11:20:10.578Z,62.07
2018-08-12T11:22:39.617Z,62.59
2018-08-12T11:25:09.701Z,62.01
2018-08-12T11:27:38.290Z,60.96
2018-08-12T11:30:10.920Z,61.21
2018-08-12T11:32:39.639Z,60.94
2018-08-12T11:35:09.962Z,60.46
2018-08-12T11:37:39.103Z,59.32
2018-08-12T11:40:09.053Z,59.52
2018-08-12T11:42:37.554Z,59.10
2018-08-12T11:45:08.413Z,59.58
2018-08-12T11:47:38.265Z,59.18
2018-08-12T11:50:07.823Z,58.97
2018-08-12T11:52:36.405Z,59.71
2018-08-12T11:55:05.838Z,59.46
2018-08-12T11:57:34.297Z,59.40
2018-08-12T12:00:03.297Z,58.71
2018-08-12T12:02:31.797Z,59.07
2018-08-12T12:05:00.842Z,59.19
2018-08-12T12:07:29.413Z,58.50
2018-08-12T12:09:57.863Z,57.12
2018-08-12T12:12:26.328Z,58.42
2018-08-12T12:14:55.004Z,57.50
2018-08-12T12:17:23.574Z,56.58
2018-08-12T12:19:52.082Z,56.14
2018-08-12T12:22:21.117Z,54.84
2018-08-12T12:24:49.577Z,54.96
2018-08-12T12:27:18.763Z,55.46
2018-08-12T12:29:47.402Z,56.62
2018-08-12T12:32:15.850Z,58.08
2018-08-12T12:34:44.305Z,60.37
2018-08-12T12:37:12.950Z,62.35
2018-08-12T12:39:41.425Z,64.08
2018-08-12T12:42:09.919Z,65.58
2018-08-12T12:44:38.825Z,66.66
2018-08-12T12:47:07.273Z,68.11
2018-08-12T12:49:42.954Z,68.56
2018-08-12T12:52:11.449Z,68.99
2018-08-12T12:54:39.925Z,69.44
2018-08-12T12:57:08.849Z,69.26
2018-08-12T12:59:37.317Z,68.94
2018-08-12T13:02:06.074Z,68.60
2018-08-12T13:04:34.861Z,68.36
2018-08-12T13:07:04.019Z,68.33
2018-08-12T13:09:33.050Z,68.55
2018-08-12T13:12:01.657Z,68.96
2018-08-12T13:14:30.119Z,69.06
2018-08-12T13:16:58.573Z,68.36
2018-08-12T13:19:27.201Z,68.46
2018-08-12T13:21:55.673Z,68.73
2018-08-12T13:24:24.208Z,68.81
2018-08-12T13:26:52.941Z,68.75
2018-08-12T13:29:21.389Z,69.32
2018-08-12T13:31:49.857Z,69.57
2018-08-12T13:34:19.413Z,69.71
2018-08-12T13:36:47.874Z,69.86
2018-08-12T13:39:16.433Z,70.48
2018-08-12T13:41:45.154Z,70.62
2018-08-12T13:44:13.589Z,70.91
2018-08-12T13:46:42.082Z,70.97
2018-08-12T13:49:11.016Z,70.73
2018-08-12T13:51:39.602Z,70.67
2018-08-12T13:54:08.087Z,70.64
2018-08-12T13:56:36.717Z,70.42
2018-08-12T13:59:05.733Z,70.92
2018-08-12T14:01:34.247Z,70.94
2018-08-12T14:04:03.037Z,71.11
2018-08-12T14:06:31.530Z,71.17
2018-08-12T14:08:59.997Z,69.95
2018-08-12T14:11:28.969Z,69.70
2018-08-12T14:13:57.528Z,69.50
2018-08-12T14:16:25.988Z,69.89
2018-08-12T14:18:54.732Z,69.70
2018-08-12T14:21:24.319Z,69.58
2018-08-12T14:23:52.709Z,70.22
2018-08-12T14:26:21.311Z,70.25
2018-08-12T14:28:49.793Z,70.13
2018-08-12T14:31:18.306Z,70.28
2018-08-12T14:33:47.222Z,69.26
2018-08-12T14:36:15.678Z,69.48
2018-08-12T14:38:44.197Z,68.66
2018-08-12T14:41:13.209Z,67.89
2018-08-12T14:43:41.637Z,68.09
2018-08-12T14:46:10.117Z,67.29
2018-08-12T14:48:38.701Z,67.92
2018-08-12T14:51:07.238Z,67.67
2018-08-12T14:53:35.993Z,68.40
2018-08-12T14:56:04.631Z,68.25
2018-08-12T14:58:33.209Z,69.15
2018-08-12T15:01:01.689Z,68.88
2018-08-12T15:03:30.457Z,69.01
2018-08-12T15:05:59.041Z,69.66
2018-08-12T15:08:27.504Z,69.91
2018-08-12T15:10:56.081Z,69.35
2018-08-12T15:13:24.541Z,69.01
2018-08-12T15:15:53.034Z,69.31
2018-08-12T15:18:21.673Z,70.06
2018-08-12T15:20:50.177Z,70.00
2018-08-12T15:23:18.654Z,69.96
2018-08-12T15:25:47.381Z,69.78
2018-08-12T15:28:15.921Z,70.28
2018-08-12T15:30:44.445Z,70.29
2018-08-12T15:33:13.157Z,70.46
2018-08-12T15:35:41.654Z,70.75
2018-08-12T15:38:10.109Z,70.78
2018-08-12T15:40:38.890Z,71.70
2018-08-12T15:43:07.393Z,72.00
2018-08-12T15:45:35.928Z,72.67
2018-08-12T15:48:04.638Z,73.04
2018-08-12T15:50:33.697Z,73.15
2018-08-12T15:53:02.728Z,73.25
2018-08-12T15:55:31.837Z,73.18
2018-08-12T15:58:00.761Z,73.16
2018-08-12T16:00:29.428Z,72.79
2018-08-12T16:02:58.267Z,72.58
2018-08-12T16:05:26.958Z,72.58
2018-08-12T16:07:55.432Z,72.53
2018-08-12T16:10:24.556Z,72.50
2018-08-12T16:12:54.088Z,72.48
2018-08-12T16:15:23.157Z,72.06
2018-08-12T16:17:51.737Z,71.94
2018-08-12T16:20:20.237Z,71.91
2018-08-12T16:22:48.729Z,71.85
2018-08-12T16:25:19.477Z,71.79
2018-08-12T16:27:47.966Z,71.83
2018-08-12T16:30:17.537Z,72.28
2018-08-12T16:32:46.269Z,72.37
2018-08-12T16:35:15.904Z,72.98
2018-08-12T16:37:45.054Z,73.20
2018-08-12T16:40:17.572Z,73.31
2018-08-12T16:42:46.491Z,73.44
2018-08-12T16:45:15.795Z,73.73
2018-08-12T16:47:44.768Z,74.17
2018-08-12T16:50:13.339Z,74.21
2018-08-12T16:52:42.167Z,74.26
2018-08-12T16:55:12.722Z,74.70
2018-08-12T16:57:41.317Z,74.95
2018-08-12T17:00:13.701Z,74.96
2018-08-12T17:02:42.481Z,75.21
2018-08-12T17:05:13.184Z,75.23
2018-08-12T17:07:42.214Z,74.94
2018-08-12T17:10:11.633Z,74.87
2018-08-12T17:12:40.388Z,75.09
2018-08-12T17:15:10.747Z,75.03
2018-08-12T17:17:39.359Z,74.97
2018-08-12T17:20:09.909Z,74.89
2018-08-12T17:22:38.605Z,74.84
2018-08-12T17:25:07.690Z,74.67
2018-08-12T17:27:37.018Z,74.50
2018-08-12T17:30:07.417Z,74.47
2018-08-12T17:32:36.023Z,74.21
2018-08-12T17:35:04.978Z,74.41
2018-08-12T17:37:34.176Z,74.50
2018-08-12T17:40:02.791Z,74.36
2018-08-12T17:42:31.357Z,74.23
2018-08-12T17:45:00.245Z,74.18
2018-08-12T17:47:28.718Z,74.23
2018-08-12T17:49:57.221Z,74.02
2018-08-12T17:52:25.765Z,74.04
2018-08-12T17:54:54.254Z,74.13
2018-08-12T17:57:22.834Z,73.85
2018-08-12T17:59:51.929Z,73.70
2018-08-12T18:02:20.390Z,73.71
2018-08-12T18:04:48.945Z,73.87
2018-08-12T18:07:17.797Z,73.79
2018-08-12T18:09:46.397Z,74.04
2018-08-12T18:12:14.874Z,74.20
2018-08-12T18:14:44.409Z,74.01
2018-08-12T18:17:13.025Z,74.27
2018-08-12T18:19:41.655Z,74.44
2018-08-12T18:22:10.221Z,74.65
2018-08-12T18:24:38.669Z,74.70
2018-08-12T18:27:07.221Z,74.46
2018-08-12T18:29:35.661Z,74.73
2018-08-12T18:32:04.409Z,74.66
2018-08-12T18:34:33.038Z,74.23
2018-08-12T18:37:01.537Z,74.44
2018-08-12T18:39:29.986Z,74.49
2018-08-12T18:41:58.444Z,74.43
2018-08-12T18:44:27.361Z,74.54
2018-08-12T18:46:55.801Z,74.77
2018-08-12T18:49:24.346Z,74.53
2018-08-12T18:51:52.922Z,74.87
2018-08-12T18:54:21.526Z,75.27
2018-08-12T18:56:50.005Z,75.26
2018-08-12T18:59:18.585Z,75.32
2018-08-12T19:01:47.613Z,75.31
2018-08-12T19:04:16.111Z,75.33
2018-08-12T19:06:44.653Z,75.53
2018-08-12T19:09:13.102Z,76.12
2018-08-12T19:11:41.638Z,76.30
2018-08-12T19:14:10.213Z,76.78
2018-08-12T19:16:38.685Z,77.04
2018-08-12T19:19:07.253Z,76.82
2018-08-12T19:21:35.701Z,77.17
2018-08-12T19:24:04.252Z,77.28
2018-08-12T19:26:32.990Z,77.13
2018-08-12T19:29:02.422Z,77.67
2018-08-12T19:31:30.878Z,77.70
2018-08-12T19:33:59.361Z,77.94
2018-08-12T19:36:27.961Z,77.77
2018-08-12T19:38:56.418Z,77.74
2018-08-12T19:41:25.758Z,78.27
2018-08-12T19:43:54.658Z,78.35
2018-08-12T19:46:23.366Z,78.73
2018-08-12T19:48:51.873Z,78.48
2018-08-12T19:51:27.074Z,78.57
2018-08-12T19:53:55.545Z,79.21
2018-08-12T19:56:25.061Z,79.16
2018-08-12T19:58:53.837Z,78.95
2018-08-12T20:01:22.450Z,79.76
2018-08-12T20:03:51.209Z,79.99
2018-08-12T20:06:19.997Z,80.20
2018-08-12T20:08:51.690Z,80.33
2018-08-12T20:11:20.706Z,80.40
2018-08-12T20:13:49.268Z,80.85
2018-08-12T20:16:17.794Z,80.68
2018-08-12T20:18:52.845Z,80.75
2018-08-12T20:21:21.597Z,80.73
2018-08-12T20:23:50.045Z,80.84
2018-08-12T20:26:18.517Z,81.38
2018-08-12T20:28:47.137Z,81.32
2018-08-12T20:31:15.594Z,81.04
2018-08-12T20:33:44.269Z,81.05
2018-08-12T20:36:12.745Z,81.12
2018-08-12T20:38:41.329Z,81.18
2018-08-12T20:41:09.925Z,81.50
2018-08-12T20:43:38.430Z,81.80
2018-08-12T20:46:06.929Z,81.56
2018-08-12T20:48:35.877Z,81.21
2018-08-12T20:51:04.366Z,81.51
2018-08-12T20:53:33.442Z,80.96
2018-08-12T20:56:02.445Z,81.52
2018-08-12T20:58:30.953Z,80.91
2018-08-12T21:00:59.415Z,80.92
2018-08-12T21:03:28.193Z,80.83
2018-08-12T21:05:57.190Z,81.12
2018-08-12T21:08:25.687Z,81.14
2018-08-12T21:10:54.317Z,80.52
2018-08-12T21:13:22.858Z,80.71
2018-08-12T21:15:51.327Z,80.50
2018-08-12T21:18:19.941Z,80.78
2018-08-12T21:20:48.453Z,80.48
2018-08-12T21:23:16.953Z,80.35
2018-08-12T21:25:45.513Z,80.33
2018-08-12T21:28:14.040Z,80.30
2018-08-12T21:30:42.485Z,80.27
2018-08-12T21:33:11.185Z,80.18
2018-08-12T21:35:39.701Z,80.25
2018-08-12T21:38:08.256Z,79.97
2018-08-12T21:40:37.260Z,79.91
2018-08-12T21:43:05.913Z,79.94
2018-08-12T21:45:35.531Z,80.08
2018-08-12T21:48:05.319Z,79.88
2018-08-12T21:50:33.916Z,79.56
2018-08-12T21:53:02.638Z,79.63
2018-08-12T21:55:31.144Z,79.82
2018-08-12T21:58:01.254Z,79.75
2018-08-12T22:00:31.903Z,79.65
2018-08-12T22:03:00.850Z,79.99
2018-08-12T22:05:29.582Z,79.64
2018-08-12T22:07:58.493Z,79.63
2018-08-12T22:10:27.396Z,79.74
2018-08-12T22:12:55.951Z,79.65
2018-08-12T22:15:24.687Z,79.81
2018-08-12T22:17:53.800Z,80.21
2018-08-12T22:20:22.303Z,80.28
2018-08-12T22:22:50.918Z,79.71
2018-08-12T22:25:19.817Z,79.88
2018-08-12T22:27:48.302Z,80.19
2018-08-12T22:30:17.532Z,80.28
2018-08-12T22:32:46.089Z,80.16
2018-08-12T22:35:14.741Z,80.06
2018-08-12T22:37:43.238Z,80.23
2018-08-12T22:40:11.883Z,79.93
2018-08-12T22:42:40.397Z,80.12
2018-08-12T22:45:10.192Z,80.12
2018-08-12T22:47:38.745Z,79.97
2018-08-12T22:50:07.957Z,80.34
2018-08-12T22:52:36.501Z,80.36
2018-08-12T22:55:05.801Z,80.25
2018-08-12T22:57:35.497Z,79.99
2018-08-12T23:00:05.861Z,80.21
2018-08-12T23:02:34.371Z,80.61
2018-08-12T23:05:03.697Z,80.17
2018-08-12T23:07:32.217Z,79.92
2018-08-12T23:10:01.301Z,80.14
2018-08-12T23:12:29.798Z,80.16
2018-08-12T23:17:06.409Z,80.33
2018-08-12T23:19:34.974Z,79.42
2018-08-12T23:22:03.467Z,79.62
2018-08-12T23:24:32.258Z,80.18
2018-08-12T23:27:00.768Z,80.03
2018-08-12T23:29:29.221Z,79.22
2018-08-12T23:31:58.039Z,79.17
2018-08-12T23:34:26.477Z,78.81
2018-08-12T23:36:55.150Z,79.16
2018-08-12T23:39:24.028Z,79.30
2018-08-12T23:41:52.524Z,79.55
2018-08-12T23:44:21.057Z,79.23
2018-08-12T23:46:49.801Z,79.51
2018-08-12T23:49:18.237Z,79.31
2018-08-12T23:51:46.741Z,79.62
2018-08-12T23:54:15.526Z,79.02
2018-08-12T23:56:44.003Z,79.23
2018-08-12T23:59:12.501Z,79.12
